Andyville, Minnesota
Current Conditions -  °F | °C
As of 4:56 PM on Monday 24 Nov 2014 (Local Time) from KAUM Reporting Station
Light Snow Light Snow  
Wind Chill: -3°   Ceiling: 1000
Heat Index: 16°   Visibility: 1.7mi
Dew Point: 10°   Wind: 24mph
Humidity: 79%   Direction: 300°WNW
Pressure: 29.66"   Gusts: 29mph
Location:  43.7173°N, 92.9889°W
Report Text: KAUM 242256Z AUTO 30021G25KT 1 3/4SM -SN BKN010 BKN014 OVC040 M09/M12 A2966 RMK AO2
Loading
Personal Weather Stations






























Interactive Weather Map New forecast layout! Learn more

10-Day Weather Forecast

Advertisements
Track Severe Weather on mobile